Time;durP1;ratioP1;P1;durP2;ratioP2;P2;SDS_P1;SDS_P2;PMS_P1;PMS_P2;Temp;Humidity;BMP_temperature;BMP_pressure;BME280_temperature;BME280_humidity;BME280_pressure;Samples;Min_cycle;Max_cycle;Signal;HPM_P1;HPM_P2
2023/05/17 00:01:52;;;;;;;9.90;5.40;;;;;;;14.77;69.22;100823.75;109661;1244;62832;-75
2023/05/17 00:04:21;;;;;;;7.30;5.20;;;;;;;14.73;69.30;100828.59;109679;1243;71544;-75
2023/05/17 00:06:49;;;;;;;7.80;5.10;;;;;;;14.70;69.44;100827.98;109613;1243;70062;-75
2023/05/17 00:09:18;;;;;;;9.00;5.20;;;;;;;14.71;69.57;100833.55;109697;1242;64114;-74
2023/05/17 00:11:47;;;;;;;6.80;5.00;;;;;;;14.70;69.88;100832.02;109692;1243;57697;-75
2023/05/17 00:14:16;;;;;;;6.90;5.20;;;;;;;14.70;69.77;100828.75;109696;1243;57688;-75
2023/05/17 00:16:45;;;;;;;12.10;5.10;;;;;;;14.67;69.79;100835.31;109675;1242;73480;-74
2023/05/17 00:19:13;;;;;;;11.80;4.90;;;;;;;14.65;69.96;100838.78;109585;1242;72616;-74
2023/05/17 00:21:42;;;;;;;8.10;5.60;;;;;;;14.65;69.88;100838.84;109586;1242;59967;-75
2023/05/17 00:24:11;;;;;;;11.20;4.50;;;;;;;14.66;69.72;100838.16;109559;1243;62489;-75
2023/05/17 00:26:40;;;;;;;8.90;5.40;;;;;;;14.68;69.57;100840.46;109692;1244;57296;-75
2023/05/17 00:29:09;;;;;;;7.80;5.10;;;;;;;14.69;69.53;100842.83;109663;1242;59520;-75
2023/05/17 00:31:37;;;;;;;7.30;5.00;;;;;;;14.67;70.01;100841.98;109589;1243;72396;-75
2023/05/17 00:34:06;;;;;;;6.60;5.00;;;;;;;14.67;70.15;100842.15;109571;1243;64369;-75
2023/05/17 00:36:35;;;;;;;10.40;5.50;;;;;;;14.67;70.40;100841.98;109581;1243;59981;-74
2023/05/17 00:39:04;;;;;;;11.70;4.60;;;;;;;14.70;70.24;100846.04;109568;1242;73880;-74
2023/05/17 00:41:32;;;;;;;7.30;5.10;;;;;;;14.74;70.36;100847.31;109638;1243;61564;-74
2023/05/17 00:44:01;;;;;;;7.00;4.80;;;;;;;14.74;70.28;100846.27;109542;1243;57168;-77
2023/05/17 00:46:32;;;;;;;8.30;5.30;;;;;;;14.76;70.09;100847.94;109650;1242;62810;-78
2023/05/17 00:49:02;;;;;;;7.00;5.10;;;;;;;14.77;69.97;100846.89;109548;1245;61829;-78
2023/05/17 00:51:32;;;;;;;8.00;5.40;;;;;;;14.79;69.81;100848.60;109569;1245;68786;-79
2023/05/17 00:54:02;;;;;;;8.00;5.10;;;;;;;14.76;70.15;100844.70;109396;1244;73428;-78
2023/05/17 00:56:31;;;;;;;9.00;5.10;;;;;;;14.73;70.60;100845.83;109487;1245;57669;-78
2023/05/17 00:59:05;;;;;;;5.80;5.00;;;;;;;14.64;71.64;100845.89;109614;1243;61229;-78
2023/05/17 01:01:40;;;;;;;10.80;4.90;;;;;;;14.67;71.11;100846.69;109484;1243;72807;-78
2023/05/17 01:04:09;;;;;;;9.70;5.20;;;;;;;14.65;71.20;100846.34;109456;1244;72686;-78
2023/05/17 01:06:40;;;;;;;7.30;4.60;;;;;;;14.67;71.15;100845.80;109489;1243;59368;-79
2023/05/17 01:09:09;;;;;;;11.00;5.90;;;;;;;14.69;71.08;100841.96;109490;1246;62459;-79
2023/05/17 01:12:35;;;;;;;6.80;4.70;;;;;;;14.70;71.14;100841.17;109457;1246;57440;-79
2023/05/17 01:15:12;;;;;;;7.80;5.00;;;;;;;14.70;70.64;100843.94;109608;1243;60702;-78
2023/05/17 01:17:57;;;;;;;8.60;5.20;;;;;;;14.71;70.83;100841.45;109544;1245;63634;-75
2023/05/17 01:20:35;;;;;;;8.60;4.90;;;;;;;14.71;70.86;100844.09;109617;1244;61646;-76
2023/05/17 01:23:47;;;;;;;6.30;5.30;;;;;;;14.71;70.81;100841.23;109450;1243;70468;-76
2023/05/17 01:26:30;;;;;;;9.60;5.10;;;;;;;14.72;70.62;100841.89;109443;1243;62932;-75
2023/05/17 01:29:01;;;;;;;9.00;5.50;;;;;;;14.72;70.91;100840.81;109429;1245;57707;-75
2023/05/17 01:31:31;;;;;;;6.80;5.10;;;;;;;14.67;70.75;100830.23;109472;1244;57746;-77
2023/05/17 01:34:00;;;;;;;6.40;5.10;;;;;;;14.71;70.91;100840.34;109405;1243;72842;-76
2023/05/17 01:36:29;;;;;;;7.70;6.50;;;;;;;14.70;71.01;100838.32;109491;1244;72385;-76
2023/05/17 01:38:59;;;;;;;7.10;5.00;;;;;;;14.69;71.23;100837.52;109601;1242;59928;-75
2023/05/17 01:41:41;;;;;;;7.70;5.40;;;;;;;14.68;71.59;100839.02;109555;1244;62534;-76
2023/05/17 01:45:10;;;;;;;11.40;5.60;;;;;;;14.61;72.11;100839.48;109481;1247;60394;-73
2023/05/17 01:47:51;;;;;;;10.70;5.20;;;;;;;14.53;72.71;100834.75;109127;1242;61670;-73
2023/05/17 01:50:28;;;;;;;7.70;5.10;;;;;;;14.51;73.11;100836.13;109544;1243;72215;-73
2023/05/17 01:53:07;;;;;;;7.40;5.90;;;;;;;14.47;73.33;100837.36;109356;1243;72629;-73
2023/05/17 01:55:55;;;;;;;8.30;5.20;;;;;;;14.48;72.94;100836.04;109419;1243;70132;-73
2023/05/17 01:58:27;;;;;;;7.90;5.10;;;;;;;14.51;72.31;100832.27;109447;1244;73340;-74
2023/05/17 02:01:00;;;;;;;7.10;5.30;;;;;;;14.49;71.27;100831.75;109483;1245;57938;-73
2023/05/17 02:03:29;;;;;;;6.40;5.20;;;;;;;14.42;72.73;100834.25;109525;1242;60477;-74
2023/05/17 02:05:57;;;;;;;6.20;4.60;;;;;;;14.40;71.65;100830.60;109622;1243;73899;-74
2023/05/17 02:08:26;;;;;;;7.40;5.20;;;;;;;14.36;72.08;100834.66;109470;1248;62169;-74
2023/05/17 02:10:55;;;;;;;9.10;5.10;;;;;;;14.31;72.76;100833.83;109515;1245;60161;-74
2023/05/17 02:13:24;;;;;;;9.50;5.60;;;;;;;14.28;72.82;100833.88;109511;1244;73045;-76
2023/05/17 02:15:52;;;;;;;6.90;5.10;;;;;;;14.28;74.32;100836.69;109411;1244;62465;-76
2023/05/17 02:18:21;;;;;;;7.00;5.10;;;;;;;14.30;74.99;100834.98;109374;1246;57794;-75
2023/05/17 02:20:50;;;;;;;10.30;5.50;;;;;;;14.34;75.08;100832.88;109406;1243;72987;-74
2023/05/17 02:23:20;;;;;;;8.00;5.20;;;;;;;14.40;73.97;100834.86;109593;1245;62706;-73
2023/05/17 02:25:48;;;;;;;12.10;5.10;;;;;;;14.47;73.73;100836.44;109184;1242;363669;-72
2023/05/17 02:28:17;;;;;;;7.80;5.10;;;;;;;14.56;72.93;100838.89;109464;1243;62847;-76
2023/05/17 02:30:46;;;;;;;9.30;5.10;;;;;;;14.71;71.89;100840.17;109495;1245;57642;-77
2023/05/17 02:33:15;;;;;;;5.70;4.40;;;;;;;14.79;71.87;100838.90;109574;1243;61234;-75
2023/05/17 02:35:44;;;;;;;7.30;4.90;;;;;;;14.86;71.52;100840.27;109353;1244;72882;-74
2023/05/17 02:38:12;;;;;;;8.30;4.60;;;;;;;14.91;70.78;100837.70;109315;1244;72640;-75
2023/05/17 02:40:41;;;;;;;7.60;4.50;;;;;;;14.98;70.44;100840.62;109371;1243;70423;-75
2023/05/17 02:43:10;;;;;;;8.20;4.80;;;;;;;15.03;70.07;100838.04;109441;1245;63778;-74
2023/05/17 02:45:39;;;;;;;7.60;4.50;;;;;;;15.08;69.78;100840.03;109354;1243;57169;-76
2023/05/17 02:48:08;;;;;;;6.70;4.50;;;;;;;15.14;69.66;100844.46;109334;1243;61010;-75
2023/05/17 02:50:37;;;;;;;6.80;5.10;;;;;;;15.18;69.77;100847.06;109610;1241;72589;-74
2023/05/17 02:53:06;;;;;;;9.00;4.90;;;;;;;15.23;69.83;100850.31;109613;1244;72667;-74
2023/05/17 02:55:34;;;;;;;11.20;5.00;;;;;;;15.27;69.46;100847.86;109699;1241;70795;-74
2023/05/17 02:58:03;;;;;;;9.80;4.50;;;;;;;15.31;69.07;100847.83;109697;1241;74490;-74
2023/05/17 03:00:32;;;;;;;9.40;5.00;;;;;;;15.40;68.61;100851.60;109615;1245;62005;-74
2023/05/17 03:03:01;;;;;;;7.50;5.20;;;;;;;15.46;68.40;100853.50;109658;1242;61998;-75
2023/05/17 03:05:32;;;;;;;9.90;5.20;;;;;;;15.53;68.02;100856.87;109468;1241;73394;-75
2023/05/17 03:08:01;;;;;;;8.10;5.10;;;;;;;15.59;68.01;100859.16;109443;1247;62654;-75
2023/05/17 03:10:30;;;;;;;9.40;5.40;;;;;;;15.62;68.04;100859.89;109628;1245;59816;-75
2023/05/17 03:12:59;;;;;;;7.20;5.20;;;;;;;15.65;68.06;100864.20;109601;1245;63112;-75
2023/05/17 03:15:32;;;;;;;10.70;5.20;;;;;;;15.66;68.27;100869.08;109619;1245;57475;-75
2023/05/17 03:18:01;;;;;;;9.40;5.30;;;;;;;15.66;68.45;100873.95;109609;1244;57167;-75
2023/05/17 03:20:30;;;;;;;9.60;5.30;;;;;;;15.69;68.21;100873.73;109503;1246;62397;-75
2023/05/17 03:22:59;;;;;;;8.60;4.80;;;;;;;15.70;68.56;100874.03;109625;1241;72233;-75
2023/05/17 03:25:28;;;;;;;7.30;5.20;;;;;;;15.71;68.32;100878.77;109644;1244;70084;-76
2023/05/17 03:27:57;;;;;;;10.70;5.60;;;;;;;15.70;68.58;100880.67;109429;1247;62879;-75
2023/05/17 03:30:26;;;;;;;7.80;5.10;;;;;;;15.69;68.66;100884.77;109624;1245;60011;-77
2023/05/17 03:32:55;;;;;;;11.50;6.20;;;;;;;15.70;68.80;100882.21;109509;1243;60682;-78
2023/05/17 03:35:24;;;;;;;8.70;5.50;;;;;;;15.71;68.91;100886.20;109362;1244;63445;-79
2023/05/17 03:37:57;;;;;;;10.30;5.10;;;;;;;15.76;68.73;100893.98;109475;1244;72859;-76
2023/05/17 03:40:26;;;;;;;8.40;5.60;;;;;;;15.78;68.56;100897.83;109501;1243;70146;-77
2023/05/17 03:42:54;;;;;;;9.00;5.00;;;;;;;15.80;68.67;100898.15;109492;1244;74141;-75
2023/05/17 03:45:26;;;;;;;7.80;5.60;;;;;;;15.86;68.41;100902.21;109513;1245;57625;-76
2023/05/17 03:47:55;;;;;;;12.40;5.20;;;;;;;15.88;68.39;100903.94;109532;1245;57187;-76
2023/05/17 03:50:25;;;;;;;13.20;5.40;;;;;;;15.96;68.17;100905.45;109548;1244;64923;-76
2023/05/17 03:52:54;;;;;;;11.60;5.40;;;;;;;16.05;67.73;100903.45;109561;1241;61659;-75
2023/05/17 03:55:23;;;;;;;18.30;5.70;;;;;;;16.08;67.68;100896.08;109623;1241;70374;-75
2023/05/17 03:57:52;;;;;;;10.30;5.00;;;;;;;16.10;66.95;100893.41;109610;1241;73660;-84
2023/05/17 04:00:22;;;;;;;9.50;5.50;;;;;;;16.15;66.62;100890.90;109580;1244;57741;-82
2023/05/17 04:02:53;;;;;;;7.90;4.70;;;;;;;16.20;66.70;100890.66;109475;1244;61247;-78
2023/05/17 04:05:22;;;;;;;10.50;4.90;;;;;;;16.28;66.65;100891.67;109412;1245;73206;-80
2023/05/17 04:07:52;;;;;;;12.50;6.40;;;;;;;16.33;66.34;100887.11;109437;1245;64307;-77
2023/05/17 04:10:21;;;;;;;9.30;5.90;;;;;;;16.34;66.41;100887.50;109568;1245;70148;-80
2023/05/17 04:12:50;;;;;;;11.60;5.30;;;;;;;16.43;66.22;100891.25;109150;1241;74439;-79
2023/05/17 04:15:19;;;;;;;9.40;5.30;;;;;;;16.48;66.20;100885.53;109270;1248;61234;-77
2023/05/17 04:17:49;;;;;;;8.90;5.50;;;;;;;16.56;66.15;100883.50;109450;1241;57409;-83
2023/05/17 04:20:18;;;;;;;13.30;5.10;;;;;;;16.68;65.90;100885.94;109489;1241;62986;-77
2023/05/17 04:22:47;;;;;;;13.20;5.50;;;;;;;16.77;65.45;100889.48;109654;1243;60870;-77
2023/05/17 04:25:17;;;;;;;10.00;4.80;;;;;;;16.70;65.19;100891.15;109536;1241;69679;-77
2023/05/17 04:27:46;;;;;;;8.00;5.70;;;;;;;16.79;65.05;100891.54;109378;1241;72079;-77
2023/05/17 04:30:15;;;;;;;12.30;6.70;;;;;;;16.87;65.44;100893.11;109329;1245;61801;-78
2023/05/17 04:32:44;;;;;;;13.20;6.10;;;;;;;16.89;66.37;100892.05;109442;1244;57196;-77
2023/05/17 04:35:13;;;;;;;13.50;7.10;;;;;;;16.80;67.37;100895.20;109573;1241;72613;-78
2023/05/17 04:37:43;;;;;;;16.20;6.70;;;;;;;16.68;68.13;100894.37;109510;1241;70821;-79
2023/05/17 04:40:21;;;;;;;13.70;6.70;;;;;;;16.60;68.94;100897.40;109622;1241;60267;-78
2023/05/17 04:42:51;;;;;;;15.60;7.70;;;;;;;16.54;69.61;100906.91;109641;1241;64158;-80
2023/05/17 04:45:19;;;;;;;10.00;6.80;;;;;;;16.50;69.74;100909.73;109689;1244;60557;-79
2023/05/17 04:47:49;;;;;;;11.40;6.70;;;;;;;16.45;70.02;100911.80;109655;1241;61404;-79
2023/05/17 04:50:19;;;;;;;11.90;7.40;;;;;;;16.34;71.21;100917.91;109529;1241;73402;-79
2023/05/17 04:52:47;;;;;;;19.20;7.10;;;;;;;16.27;71.88;100922.06;109581;1244;71982;-79
2023/05/17 04:55:17;;;;;;;16.20;6.80;;;;;;;16.24;72.19;100930.33;109558;1241;59701;-78
2023/05/17 04:57:46;;;;;;;17.00;7.00;;;;;;;16.18;72.45;100937.04;109678;1241;62483;-79
2023/05/17 05:00:17;;;;;;;11.10;6.60;;;;;;;16.18;72.69;100939.09;109493;1241;57190;-80
2023/05/17 05:02:50;;;;;;;11.40;6.70;;;;;;;16.30;72.50;100939.23;109707;1245;60320;-80
2023/05/17 05:05:19;;;;;;;16.00;6.80;;;;;;;16.24;72.89;100936.67;109744;1244;72764;-80
2023/05/17 05:07:48;;;;;;;9.90;6.90;;;;;;;16.25;72.95;100937.61;109726;1241;63146;-80
2023/05/17 05:10:17;;;;;;;11.50;6.90;;;;;;;16.26;72.95;100938.38;109721;1241;70619;-82
2023/05/17 05:12:47;;;;;;;9.30;7.20;;;;;;;16.22;73.50;100934.56;109699;1245;63768;-79
2023/05/17 05:15:16;;;;;;;14.70;7.40;;;;;;;16.30;73.65;100935.32;109730;1241;57967;-82
2023/05/17 05:17:50;;;;;;;13.10;7.40;;;;;;;16.38;73.31;100937.25;109688;1245;57089;-82
2023/05/17 05:20:19;;;;;;;10.90;7.20;;;;;;;16.44;72.90;100933.31;109628;1241;62989;-82
2023/05/17 05:22:48;;;;;;;12.40;7.70;;;;;;;16.54;73.05;100934.94;109689;1241;60700;-81
2023/05/17 05:25:17;;;;;;;11.90;7.80;;;;;;;16.63;72.44;100938.78;109537;1243;70407;-82
2023/05/17 05:27:46;;;;;;;18.90;7.00;;;;;;;16.77;71.78;100936.64;109634;1241;65238;-83
2023/05/17 05:30:20;;;;;;;17.10;7.10;;;;;;;16.89;71.05;100932.42;109608;1243;60388;-81
2023/05/17 05:32:51;;;;;;;14.80;7.40;;;;;;;16.97;71.22;100933.10;109689;1241;57750;-80
2023/05/17 05:35:27;;;;;;;22.20;7.00;;;;;;;17.00;71.83;100932.30;109674;1241;73052;-83
2023/05/17 05:37:58;;;;;;;13.80;7.40;;;;;;;17.11;71.08;100932.45;109640;1245;72565;-74
2023/05/17 05:40:27;;;;;;;10.90;6.50;;;;;;;17.13;70.64;100934.23;109494;1246;60838;-74
2023/05/17 05:42:56;;;;;;;11.10;6.90;;;;;;;17.09;70.70;100933.90;109439;1241;63707;-75
2023/05/17 05:45:25;;;;;;;14.00;7.90;;;;;;;17.02;71.45;100934.91;109545;1245;57314;-74
2023/05/17 05:47:56;;;;;;;19.60;7.20;;;;;;;17.15;70.99;100936.61;109607;1241;57786;-74
2023/05/17 05:50:25;;;;;;;12.10;6.80;;;;;;;17.30;70.82;100932.19;109459;1244;73048;-74
2023/05/17 05:53:00;;;;;;;13.70;6.30;;;;;;;17.47;69.86;100932.66;109612;1243;61774;-76
2023/05/17 05:55:45;;;;;;;13.60;7.00;;;;;;;17.59;69.51;100936.23;109668;1241;60724;-74
2023/05/17 05:58:15;;;;;;;13.70;6.70;;;;;;;17.89;66.30;100932.70;109530;1243;63307;-73
2023/05/17 06:00:45;;;;;;;17.80;6.70;;;;;;;18.21;63.82;100939.19;109470;1245;57133;-75
2023/05/17 06:03:14;;;;;;;10.80;6.20;;;;;;;18.40;63.19;100943.77;109632;1241;60396;-74
2023/05/17 06:05:43;;;;;;;14.50;6.40;;;;;;;18.63;64.93;100945.30;109554;1241;63388;-74
2023/05/17 06:08:12;;;;;;;10.20;6.00;;;;;;;18.82;64.98;100950.08;109650;1241;61453;-74
2023/05/17 06:10:41;;;;;;;11.90;5.50;;;;;;;18.53;62.21;100945.98;109707;1241;59213;-75
2023/05/17 06:13:09;;;;;;;9.70;5.40;;;;;;;18.41;61.78;100948.80;109616;1244;73777;-77
2023/05/17 06:15:39;;;;;;;11.60;5.70;;;;;;;18.64;61.16;100949.34;109689;1241;57634;-75
2023/05/17 06:18:08;;;;;;;14.80;6.00;;;;;;;18.58;61.13;100951.88;109442;1247;57406;-75
2023/05/17 06:20:37;;;;;;;13.00;5.40;;;;;;;18.47;61.09;100950.50;109718;1241;62419;-75
2023/05/17 06:23:06;;;;;;;13.10;5.70;;;;;;;18.47;61.37;100949.60;109678;1244;60847;-73
2023/05/17 06:25:35;;;;;;;11.10;5.50;;;;;;;18.79;60.74;100957.16;109722;1244;69653;-74
2023/05/17 06:28:03;;;;;;;13.30;5.50;;;;;;;18.83;60.53;100954.55;109690;1244;74216;-73
2023/05/17 06:30:32;;;;;;;9.80;5.30;;;;;;;18.74;60.46;100958.48;109576;1245;61206;-74
2023/05/17 06:33:01;;;;;;;14.90;5.80;;;;;;;18.82;60.38;100958.59;109570;1243;57707;-72
2023/05/17 06:35:30;;;;;;;11.30;5.80;;;;;;;19.08;59.89;100959.19;109676;1241;62924;-73
2023/05/17 06:38:19;;;;;;;10.60;5.10;;;;;;;19.13;59.31;100962.39;109686;1241;71384;-73
2023/05/17 06:40:53;;;;;;;12.20;6.00;;;;;;;19.10;59.11;100962.21;109696;1241;71127;-73
2023/05/17 06:43:22;;;;;;;13.00;7.10;;;;;;;19.17;60.74;100961.99;109635;1242;73672;-73
2023/05/17 06:45:50;;;;;;;12.60;7.10;;;;;;;19.28;61.53;100969.36;109703;1244;57636;-73
2023/05/17 06:48:19;;;;;;;17.30;6.70;;;;;;;19.38;60.86;100965.63;109723;1242;57221;-73
2023/05/17 06:50:48;;;;;;;13.70;6.30;;;;;;;19.46;60.82;100971.27;109756;1242;62949;-73
2023/05/17 06:53:17;;;;;;;15.20;6.90;;;;;;;19.64;60.39;100978.26;109711;1241;72153;-74
2023/05/17 06:55:45;;;;;;;15.00;6.90;;;;;;;19.82;60.34;100981.64;109706;1241;70005;-73
2023/05/17 06:58:14;;;;;;;15.50;7.40;;;;;;;19.95;59.81;100983.52;109613;1241;62892;-72
2023/05/17 07:00:43;;;;;;;12.20;6.10;;;;;;;19.95;59.32;100986.55;109692;1244;57258;-72
2023/05/17 07:03:12;;;;;;;11.90;6.20;;;;;;;20.07;58.95;100983.67;109716;1241;59368;-73
2023/05/17 07:05:43;;;;;;;9.90;6.00;;;;;;;20.22;58.09;100978.39;109643;1241;73994;-73
2023/05/17 07:08:14;;;;;;;17.00;6.40;;;;;;;20.38;57.45;100982.57;109679;1241;62259;-73
2023/05/17 07:10:46;;;;;;;12.60;6.60;;;;;;;20.21;56.86;100984.59;109674;1241;70211;-72
2023/05/17 07:13:16;;;;;;;12.10;5.60;;;;;;;19.80;57.36;100987.27;109681;1241;63252;-72
2023/05/17 07:15:45;;;;;;;12.00;5.70;;;;;;;19.96;57.23;100984.67;109653;1245;57662;-73
2023/05/17 07:18:15;;;;;;;10.70;6.00;;;;;;;20.37;56.59;100982.96;109683;1241;57151;-74
2023/05/17 07:20:44;;;;;;;14.40;7.00;;;;;;;20.71;55.34;100981.27;109638;1241;73505;-72
2023/05/17 07:23:12;;;;;;;14.60;6.60;;;;;;;20.88;55.07;100982.79;109642;1241;72797;-73
2023/05/17 07:25:41;;;;;;;13.70;6.00;;;;;;;20.91;54.75;100976.17;109537;1241;60364;-71
2023/05/17 07:28:10;;;;;;;11.00;5.20;;;;;;;21.13;54.87;100977.64;109573;1243;72773;-71
2023/05/17 07:30:39;;;;;;;10.10;6.00;;;;;;;21.25;54.35;100976.67;109625;1241;57296;-72
2023/05/17 07:33:08;;;;;;;10.50;6.10;;;;;;;21.47;54.08;100978.74;109590;1245;57749;-72
2023/05/17 07:35:37;;;;;;;11.50;5.30;;;;;;;21.43;53.97;100980.27;109469;1241;72358;-72
2023/05/17 07:38:06;;;;;;;5.60;3.80;;;;;;;21.67;51.36;100979.92;109630;1241;62130;-72
2023/05/17 07:40:35;;;;;;;7.40;4.40;;;;;;;21.72;50.51;100979.61;109315;1248;59384;-71
2023/05/17 07:43:04;;;;;;;14.60;5.30;;;;;;;21.57;51.39;100984.75;109498;1242;73854;-71
2023/05/17 07:45:33;;;;;;;11.40;5.30;;;;;;;21.64;51.63;100984.03;109450;1241;57715;-72
2023/05/17 07:48:02;;;;;;;11.20;4.50;;;;;;;21.83;51.48;100983.45;109439;1241;61167;-72
2023/05/17 07:50:31;;;;;;;10.00;5.50;;;;;;;21.93;51.84;100981.89;109509;1241;74232;-72
2023/05/17 07:53:00;;;;;;;11.30;5.40;;;;;;;21.98;52.01;100982.96;109535;1242;61404;-71
2023/05/17 07:55:29;;;;;;;15.10;5.20;;;;;;;21.69;51.35;100988.08;109449;1241;59953;-71
2023/05/17 07:57:58;;;;;;;12.30;5.30;;;;;;;21.71;51.99;100988.34;109519;1241;72970;-72
2023/05/17 08:00:28;;;;;;;10.70;5.40;;;;;;;21.77;52.10;100989.52;109334;1245;57698;-71
2023/05/17 08:02:56;;;;;;;16.80;6.00;;;;;;;21.99;52.37;100990.77;109596;1242;60217;-72
2023/05/17 08:05:25;;;;;;;13.40;5.50;;;;;;;22.27;52.11;100989.27;109629;1241;63495;-72
2023/05/17 08:07:58;;;;;;;10.00;5.70;;;;;;;22.42;52.19;100987.45;109676;1245;60845;-81
2023/05/17 08:10:27;;;;;;;16.50;5.90;;;;;;;22.26;51.78;100991.24;109699;1241;59635;-73
2023/05/17 08:12:56;;;;;;;9.80;4.20;;;;;;;22.18;49.81;100987.87;109715;1244;63278;-85
2023/05/17 08:15:25;;;;;;;7.10;3.90;;;;;;;21.91;46.99;100987.87;109689;1245;57673;-78
2023/05/17 08:17:54;;;;;;;11.00;4.00;;;;;;;22.07;46.73;100991.89;109672;1244;61225;-72
2023/05/17 08:20:23;;;;;;;12.20;4.40;;;;;;;21.81;46.38;100993.29;109629;1241;73396;-72
2023/05/17 08:22:56;;;;;;;10.30;4.10;;;;;;;21.70;47.28;100991.74;109687;1245;62386;-71
2023/05/17 08:25:24;;;;;;;8.10;4.50;;;;;;;22.00;46.71;100988.73;109695;1241;60558;-74
2023/05/17 08:27:53;;;;;;;6.70;4.50;;;;;;;22.32;46.87;100989.51;109476;1242;63304;-73
2023/05/17 08:30:22;;;;;;;7.00;4.70;;;;;;;22.57;47.80;100989.20;109613;1244;57589;-76
2023/05/17 08:32:56;;;;;;;12.30;4.50;;;;;;;22.63;47.08;100990.95;109600;1241;61264;-74
2023/05/17 08:35:26;;;;;;;7.10;4.10;;;;;;;22.61;47.21;100993.97;109627;1241;64535;-72
2023/05/17 08:37:56;;;;;;;7.80;4.30;;;;;;;22.70;46.12;100990.16;109695;1245;61282;-72
2023/05/17 08:40:26;;;;;;;6.10;3.70;;;;;;;22.35;43.99;100988.31;109613;1243;60363;-73
2023/05/17 08:42:56;;;;;;;5.90;3.70;;;;;;;22.27;43.59;100990.22;109499;1244;73932;-72
2023/05/17 08:45:27;;;;;;;10.30;4.10;;;;;;;22.14;44.88;100986.06;109526;1244;58195;-72
2023/05/17 08:47:57;;;;;;;8.80;3.80;;;;;;;22.43;45.67;100990.13;109490;1244;60419;-73
2023/05/17 08:50:29;;;;;;;14.00;5.00;;;;;;;22.29;44.27;100985.73;109630;1241;73990;-72
2023/05/17 08:52:59;;;;;;;9.00;3.90;;;;;;;22.65;44.13;100987.30;109675;1245;62076;-73
2023/05/17 08:55:31;;;;;;;7.80;3.90;;;;;;;22.63;44.02;100985.77;109586;1241;70440;-73
2023/05/17 08:58:02;;;;;;;11.00;4.80;;;;;;;23.05;45.18;100990.69;109457;1244;65420;-72
2023/05/17 09:00:33;;;;;;;11.00;4.90;;;;;;;22.75;45.91;100984.70;109658;1245;57246;-72
2023/05/17 09:03:02;;;;;;;9.10;4.40;;;;;;;23.12;45.46;100983.58;109494;1248;57777;-73
2023/05/17 09:05:31;;;;;;;9.00;4.30;;;;;;;23.38;44.09;100984.18;109654;1244;64804;-72
2023/05/17 09:08:01;;;;;;;6.90;4.30;;;;;;;23.47;43.98;100982.56;109595;1245;60918;-72
2023/05/17 09:10:30;;;;;;;10.40;5.90;;;;;;;23.09;44.66;100983.59;109596;1245;59373;-72
2023/05/17 09:12:59;;;;;;;11.00;4.00;;;;;;;23.41;44.66;100981.73;109548;1251;62424;-73
2023/05/17 09:15:30;;;;;;;12.90;4.50;;;;;;;23.68;44.67;100981.06;109561;1245;57126;-72
2023/05/17 09:17:59;;;;;;;9.10;4.10;;;;;;;23.77;44.60;100975.98;109654;1244;57666;-72
2023/05/17 09:20:35;;;;;;;8.60;4.20;;;;;;;24.18;43.93;100975.27;109577;1246;64403;-73
2023/05/17 09:23:08;;;;;;;13.20;4.50;;;;;;;24.10;44.44;100978.58;109671;1241;63833;-73
2023/05/17 09:25:37;;;;;;;9.50;3.70;;;;;;;24.34;44.44;100977.34;109584;1245;59407;-73
2023/05/17 09:28:06;;;;;;;8.00;4.20;;;;;;;24.48;44.01;100976.51;109567;1243;73829;-72
2023/05/17 09:30:38;;;;;;;6.80;4.40;;;;;;;24.25;44.38;100975.34;109518;1246;57770;-73
2023/05/17 09:33:09;;;;;;;7.70;4.40;;;;;;;24.44;44.57;100975.12;109382;1248;57232;-73
2023/05/17 09:35:42;;;;;;;10.10;4.50;;;;;;;24.25;44.56;100979.23;109593;1245;62892;-73
2023/05/17 09:38:12;;;;;;;7.40;3.90;;;;;;;24.16;44.56;100979.13;109662;1244;61622;-71
2023/05/17 09:40:45;;;;;;;8.50;4.10;;;;;;;24.48;43.97;100977.05;109474;1241;70396;-73
2023/05/17 09:43:15;;;;;;;7.80;4.10;;;;;;;24.22;44.08;100973.84;109487;1241;74274;-75
2023/05/17 09:45:44;;;;;;;6.60;4.00;;;;;;;24.05;44.60;100971.06;109560;1246;57554;-73
2023/05/17 09:48:16;;;;;;;9.00;4.40;;;;;;;24.11;44.13;100972.96;109716;1245;58271;-73
2023/05/17 09:50:50;;;;;;;10.70;4.90;;;;;;;24.29;43.60;100970.13;109517;1242;73558;-73
2023/05/17 09:53:29;;;;;;;8.30;4.50;;;;;;;24.16;44.43;100965.79;109541;1244;72850;-73
2023/05/17 09:56:05;;;;;;;8.80;4.10;;;;;;;24.17;44.15;100965.49;109601;1244;70114;-74
2023/05/17 09:58:37;;;;;;;9.50;4.50;;;;;;;23.84;44.91;100965.51;109414;1246;63559;-75
2023/05/17 10:01:07;;;;;;;8.50;4.20;;;;;;;24.02;44.88;100960.04;109472;1245;61256;-73
2023/05/17 10:03:37;;;;;;;8.80;4.00;;;;;;;24.19;44.01;100957.05;109459;1248;60800;-73
2023/05/17 10:06:09;;;;;;;12.40;4.70;;;;;;;24.07;44.28;100956.47;109637;1245;63502;-75
2023/05/17 10:08:58;;;;;;;7.90;4.30;;;;;;;24.23;44.02;100950.56;109526;1245;71008;-73
2023/05/17 10:11:33;;;;;;;12.40;4.60;;;;;;;24.04;44.71;100952.88;109609;1241;70766;-73
2023/05/17 10:14:10;;;;;;;8.20;3.90;;;;;;;24.11;44.53;100948.29;109621;1245;73369;-75
2023/05/17 10:16:40;;;;;;;7.50;3.80;;;;;;;24.15;44.51;100948.94;109603;1241;61170;-74
2023/05/17 10:19:11;;;;;;;11.40;4.90;;;;;;;24.24;44.43;100946.09;109558;1245;61719;-73
2023/05/17 10:21:42;;;;;;;9.60;4.20;;;;;;;24.50;43.54;100941.89;109408;1244;73641;-73
2023/05/17 10:24:11;;;;;;;13.20;4.60;;;;;;;24.48;43.38;100942.17;109314;1244;72016;-72
2023/05/17 10:26:41;;;;;;;10.30;4.40;;;;;;;24.59;43.08;100939.65;109256;1245;70995;-73
2023/05/17 10:29:10;;;;;;;11.30;4.90;;;;;;;24.53;43.57;100942.86;109368;1245;63221;-69
2023/05/17 10:31:42;;;;;;;12.80;4.40;;;;;;;24.63;43.62;100941.94;109257;1244;58035;-72
2023/05/17 10:34:14;;;;;;;9.10;4.30;;;;;;;24.82;43.17;100941.36;109194;1244;61139;-72
2023/05/17 10:36:44;;;;;;;13.20;4.60;;;;;;;24.45;43.39;100941.45;109367;1241;64750;-70
2023/05/17 10:39:12;;;;;;;11.50;4.50;;;;;;;24.20;43.49;100936.13;109188;1244;71431;-70
2023/05/17 10:41:45;;;;;;;8.30;4.40;;;;;;;23.98;42.91;100936.95;109464;1244;61390;-71
2023/05/17 10:44:16;;;;;;;9.40;4.80;;;;;;;24.20;42.28;100937.31;109316;1244;72533;-71
2023/05/17 10:46:58;;;;;;;12.50;4.30;;;;;;;24.11;42.31;100935.80;109260;1245;57574;-70
2023/05/17 10:49:32;;;;;;;12.10;4.00;;;;;;;23.87;41.91;100932.30;109358;1241;60705;-71
2023/05/17 10:52:22;;;;;;;7.30;4.40;;;;;;;23.58;42.21;100938.25;109204;1244;73870;-72
2023/05/17 10:54:51;;;;;;;10.00;4.50;;;;;;;23.63;41.96;100938.47;109432;1243;72720;-73
2023/05/17 10:57:34;;;;;;;13.40;5.20;;;;;;;23.84;41.49;100935.64;109444;1243;70035;-73
2023/05/17 11:00:29;;;;;;;12.70;4.50;;;;;;;23.73;41.18;100934.92;109411;1245;72512;-72
2023/05/17 11:03:18;;;;;;;8.00;3.80;;;;;;;23.79;41.18;100932.75;109428;1245;57079;-73
2023/05/17 11:06:20;;;;;;;10.90;4.40;;;;;;;23.80;40.93;100929.79;109456;1244;61209;-72
2023/05/17 11:09:17;;;;;;;11.40;4.90;;;;;;;23.81;40.35;100922.19;109526;1241;74328;-72
2023/05/17 11:12:04;;;;;;;9.20;4.40;;;;;;;23.80;40.09;100922.59;109642;1241;62427;-72
2023/05/17 11:14:54;;;;;;;7.90;3.90;;;;;;;23.63;39.62;100932.07;109434;1245;69639;-72
2023/05/17 11:17:55;;;;;;;10.20;4.00;;;;;;;23.87;39.64;100932.92;109517;1245;73321;-75
2023/05/17 11:20:25;;;;;;;7.20;4.20;;;;;;;23.67;40.17;100936.71;109444;1244;57235;-75
2023/05/17 11:23:14;;;;;;;13.50;4.40;;;;;;;23.86;40.19;100935.45;109473;1244;59575;-71
2023/05/17 11:25:44;;;;;;;5.60;3.70;;;;;;;23.75;40.32;100933.91;109339;1244;64115;-72
2023/05/17 11:28:21;;;;;;;9.30;3.70;;;;;;;24.15;39.78;100931.05;109366;1241;61637;-70
2023/05/17 11:30:59;;;;;;;11.90;4.10;;;;;;;24.37;39.62;100928.73;109267;1241;70561;-70
2023/05/17 11:33:58;;;;;;;16.00;4.70;;;;;;;24.55;39.32;100924.17;109410;1244;74544;-70